sensor_id;sensor_type;location;lat;lon;timestamp;P1;durP1;ratioP1;P2;durP2;ratioP2
35494;SDS011;75532;49.300;6.846;2024-02-26T00:02:21;1.20;;;1.08;;
35494;SDS011;75532;49.300;6.846;2024-02-26T00:05:22;0.90;;;0.90;;
35494;SDS011;75532;49.300;6.846;2024-02-26T00:08:22;1.33;;;1.20;;
35494;SDS011;75532;49.300;6.846;2024-02-26T00:11:23;2.42;;;1.20;;
35494;SDS011;75532;49.300;6.846;2024-02-26T00:14:23;1.10;;;1.00;;
35494;SDS011;75532;49.300;6.846;2024-02-26T00:17:24;2.13;;;1.02;;
35494;SDS011;75532;49.300;6.846;2024-02-26T00:20:25;1.15;;;0.90;;
35494;SDS011;75532;49.300;6.846;2024-02-26T00:23:26;1.30;;;0.75;;
35494;SDS011;75532;49.300;6.846;2024-02-26T00:26:27;1.13;;;0.90;;
35494;SDS011;75532;49.300;6.846;2024-02-26T00:29:28;0.90;;;0.90;;
35494;SDS011;75532;49.300;6.846;2024-02-26T00:32:28;1.20;;;1.10;;
35494;SDS011;75532;49.300;6.846;2024-02-26T00:35:29;2.58;;;0.95;;
35494;SDS011;75532;49.300;6.846;2024-02-26T00:38:29;1.55;;;1.13;;
35494;SDS011;75532;49.300;6.846;2024-02-26T00:41:30;1.08;;;0.98;;
35494;SDS011;75532;49.300;6.846;2024-02-26T00:44:30;0.82;;;0.82;;
35494;SDS011;75532;49.300;6.846;2024-02-26T00:47:32;1.58;;;1.00;;
35494;SDS011;75532;49.300;6.846;2024-02-26T00:50:32;1.40;;;1.10;;
35494;SDS011;75532;49.300;6.846;2024-02-26T00:53:36;0.80;;;0.80;;
35494;SDS011;75532;49.300;6.846;2024-02-26T00:56:37;1.48;;;1.00;;
35494;SDS011;75532;49.300;6.846;2024-02-26T00:59:37;0.85;;;0.80;;
35494;SDS011;75532;49.300;6.846;2024-02-26T01:02:38;0.88;;;0.88;;
35494;SDS011;75532;49.300;6.846;2024-02-26T01:05:41;1.02;;;0.90;;
35494;SDS011;75532;49.300;6.846;2024-02-26T01:08:42;0.70;;;0.65;;
35494;SDS011;75532;49.300;6.846;2024-02-26T01:11:43;2.58;;;1.13;;
35494;SDS011;75532;49.300;6.846;2024-02-26T01:14:43;0.77;;;0.70;;
35494;SDS011;75532;49.300;6.846;2024-02-26T01:17:44;1.48;;;0.95;;
35494;SDS011;75532;49.300;6.846;2024-02-26T01:20:45;1.80;;;0.88;;
35494;SDS011;75532;49.300;6.846;2024-02-26T01:23:45;0.77;;;0.57;;
35494;SDS011;75532;49.300;6.846;2024-02-26T01:26:46;0.60;;;0.60;;
35494;SDS011;75532;49.300;6.846;2024-02-26T01:29:46;0.90;;;0.70;;
35494;SDS011;75532;49.300;6.846;2024-02-26T01:32:47;0.80;;;0.80;;
35494;SDS011;75532;49.300;6.846;2024-02-26T01:35:47;0.73;;;0.73;;
35494;SDS011;75532;49.300;6.846;2024-02-26T01:38:48;1.45;;;1.05;;
35494;SDS011;75532;49.300;6.846;2024-02-26T01:41:48;0.77;;;0.77;;
35494;SDS011;75532;49.300;6.846;2024-02-26T01:44:49;1.90;;;1.02;;
35494;SDS011;75532;49.300;6.846;2024-02-26T01:47:50;0.75;;;0.75;;
35494;SDS011;75532;49.300;6.846;2024-02-26T01:50:51;0.65;;;0.65;;
35494;SDS011;75532;49.300;6.846;2024-02-26T01:53:52;0.75;;;0.75;;
35494;SDS011;75532;49.300;6.846;2024-02-26T01:56:53;2.08;;;0.70;;
35494;SDS011;75532;49.300;6.846;2024-02-26T01:59:54;0.80;;;0.80;;
35494;SDS011;75532;49.300;6.846;2024-02-26T02:02:56;0.80;;;0.80;;
35494;SDS011;75532;49.300;6.846;2024-02-26T02:05:56;0.63;;;0.63;;
35494;SDS011;75532;49.300;6.846;2024-02-26T02:08:57;0.65;;;0.60;;
35494;SDS011;75532;49.300;6.846;2024-02-26T02:11:58;0.88;;;0.88;;
35494;SDS011;75532;49.300;6.846;2024-02-26T02:15:00;1.73;;;0.80;;
35494;SDS011;75532;49.300;6.846;2024-02-26T02:18:01;0.70;;;0.70;;
35494;SDS011;75532;49.300;6.846;2024-02-26T02:21:02;0.80;;;0.68;;
35494;SDS011;75532;49.300;6.846;2024-02-26T02:24:03;0.75;;;0.75;;
35494;SDS011;75532;49.300;6.846;2024-02-26T02:27:04;1.25;;;1.15;;
35494;SDS011;75532;49.300;6.846;2024-02-26T02:30:05;0.70;;;0.70;;
35494;SDS011;75532;49.300;6.846;2024-02-26T02:33:07;0.60;;;0.60;;
35494;SDS011;75532;49.300;6.846;2024-02-26T02:36:08;0.82;;;0.60;;
35494;SDS011;75532;49.300;6.846;2024-02-26T02:39:10;0.85;;;0.80;;
35494;SDS011;75532;49.300;6.846;2024-02-26T02:42:10;0.85;;;0.75;;
35494;SDS011;75532;49.300;6.846;2024-02-26T02:45:12;0.52;;;0.52;;
35494;SDS011;75532;49.300;6.846;2024-02-26T02:48:12;0.77;;;0.65;;
35494;SDS011;75532;49.300;6.846;2024-02-26T02:51:13;0.75;;;0.50;;
35494;SDS011;75532;49.300;6.846;2024-02-26T02:54:16;0.75;;;0.70;;
35494;SDS011;75532;49.300;6.846;2024-02-26T02:57:17;0.73;;;0.60;;
35494;SDS011;75532;49.300;6.846;2024-02-26T03:00:17;2.67;;;0.73;;
35494;SDS011;75532;49.300;6.846;2024-02-26T03:03:18;0.70;;;0.70;;
35494;SDS011;75532;49.300;6.846;2024-02-26T03:06:19;0.55;;;0.40;;
35494;SDS011;75532;49.300;6.846;2024-02-26T03:09:21;0.70;;;0.70;;
35494;SDS011;75532;49.300;6.846;2024-02-26T03:12:21;0.73;;;0.63;;
35494;SDS011;75532;49.300;6.846;2024-02-26T03:15:22;0.57;;;0.57;;
35494;SDS011;75532;49.300;6.846;2024-02-26T03:18:22;0.50;;;0.50;;
35494;SDS011;75532;49.300;6.846;2024-02-26T03:21:24;1.35;;;0.60;;
35494;SDS011;75532;49.300;6.846;2024-02-26T03:24:25;0.68;;;0.60;;
35494;SDS011;75532;49.300;6.846;2024-02-26T03:27:25;0.70;;;0.70;;
35494;SDS011;75532;49.300;6.846;2024-02-26T03:30:26;0.60;;;0.60;;
35494;SDS011;75532;49.300;6.846;2024-02-26T03:33:27;0.50;;;0.50;;
35494;SDS011;75532;49.300;6.846;2024-02-26T03:36:28;1.55;;;0.82;;
35494;SDS011;75532;49.300;6.846;2024-02-26T03:39:28;0.65;;;0.50;;
35494;SDS011;75532;49.300;6.846;2024-02-26T03:42:29;0.98;;;0.50;;
35494;SDS011;75532;49.300;6.846;2024-02-26T03:45:29;0.50;;;0.50;;
35494;SDS011;75532;49.300;6.846;2024-02-26T03:48:30;0.47;;;0.47;;
35494;SDS011;75532;49.300;6.846;2024-02-26T03:51:30;0.30;;;0.30;;
35494;SDS011;75532;49.300;6.846;2024-02-26T03:54:32;0.60;;;0.60;;
35494;SDS011;75532;49.300;6.846;2024-02-26T03:57:33;0.60;;;0.60;;
35494;SDS011;75532;49.300;6.846;2024-02-26T04:00:33;0.93;;;0.73;;
35494;SDS011;75532;49.300;6.846;2024-02-26T04:03:34;0.80;;;0.80;;
35494;SDS011;75532;49.300;6.846;2024-02-26T04:06:35;0.57;;;0.57;;
35494;SDS011;75532;49.300;6.846;2024-02-26T04:09:36;0.60;;;0.60;;
35494;SDS011;75532;49.300;6.846;2024-02-26T04:12:40;0.63;;;0.60;;
35494;SDS011;75532;49.300;6.846;2024-02-26T04:15:41;0.57;;;0.57;;
35494;SDS011;75532;49.300;6.846;2024-02-26T04:18:42;0.73;;;0.60;;
35494;SDS011;75532;49.300;6.846;2024-02-26T04:21:42;1.20;;;0.60;;
35494;SDS011;75532;49.300;6.846;2024-02-26T04:24:43;0.50;;;0.50;;
35494;SDS011;75532;49.300;6.846;2024-02-26T04:27:44;0.50;;;0.50;;
35494;SDS011;75532;49.300;6.846;2024-02-26T04:30:44;0.60;;;0.60;;
35494;SDS011;75532;49.300;6.846;2024-02-26T04:33:45;0.63;;;0.63;;
35494;SDS011;75532;49.300;6.846;2024-02-26T04:36:45;1.58;;;0.57;;
35494;SDS011;75532;49.300;6.846;2024-02-26T04:39:47;0.47;;;0.40;;
35494;SDS011;75532;49.300;6.846;2024-02-26T04:42:48;1.10;;;0.68;;
35494;SDS011;75532;49.300;6.846;2024-02-26T04:45:49;0.73;;;0.70;;
35494;SDS011;75532;49.300;6.846;2024-02-26T04:48:49;1.33;;;0.40;;
35494;SDS011;75532;49.300;6.846;2024-02-26T04:51:50;0.57;;;0.50;;
35494;SDS011;75532;49.300;6.846;2024-02-26T04:54:50;0.70;;;0.70;;
35494;SDS011;75532;49.300;6.846;2024-02-26T04:57:51;0.77;;;0.55;;
35494;SDS011;75532;49.300;6.846;2024-02-26T05:00:52;0.95;;;0.57;;
35494;SDS011;75532;49.300;6.846;2024-02-26T05:03:52;1.35;;;0.38;;
35494;SDS011;75532;49.300;6.846;2024-02-26T05:06:53;22.00;;;5.32;;
35494;SDS011;75532;49.300;6.846;2024-02-26T05:09:53;44.28;;;10.20;;
35494;SDS011;75532;49.300;6.846;2024-02-26T05:12:54;30.98;;;9.18;;
35494;SDS011;75532;49.300;6.846;2024-02-26T05:15:57;6.47;;;2.72;;
35494;SDS011;75532;49.300;6.846;2024-02-26T05:18:58;3.75;;;1.70;;
35494;SDS011;75532;49.300;6.846;2024-02-26T05:21:58;3.58;;;1.73;;
35494;SDS011;75532;49.300;6.846;2024-02-26T05:24:59;5.22;;;1.92;;
35494;SDS011;75532;49.300;6.846;2024-02-26T05:28:00;2.63;;;0.95;;
35494;SDS011;75532;49.300;6.846;2024-02-26T05:31:00;2.17;;;1.10;;
35494;SDS011;75532;49.300;6.846;2024-02-26T05:34:01;5.40;;;1.80;;
35494;SDS011;75532;49.300;6.846;2024-02-26T05:37:02;8.40;;;1.67;;
35494;SDS011;75532;49.300;6.846;2024-02-26T05:40:03;10.30;;;2.17;;
35494;SDS011;75532;49.300;6.846;2024-02-26T05:43:04;7.65;;;1.42;;
35494;SDS011;75532;49.300;6.846;2024-02-26T05:46:05;8.18;;;1.98;;
35494;SDS011;75532;49.300;6.846;2024-02-26T05:49:05;8.70;;;1.88;;
35494;SDS011;75532;49.300;6.846;2024-02-26T05:52:07;7.63;;;1.77;;
35494;SDS011;75532;49.300;6.846;2024-02-26T05:55:07;11.98;;;1.75;;
35494;SDS011;75532;49.300;6.846;2024-02-26T05:58:09;4.22;;;2.00;;
35494;SDS011;75532;49.300;6.846;2024-02-26T06:01:09;9.45;;;1.33;;
35494;SDS011;75532;49.300;6.846;2024-02-26T06:04:10;3.65;;;1.58;;
35494;SDS011;75532;49.300;6.846;2024-02-26T06:07:12;9.07;;;1.90;;
35494;SDS011;75532;49.300;6.846;2024-02-26T06:10:12;5.85;;;1.30;;
35494;SDS011;75532;49.300;6.846;2024-02-26T06:13:16;3.38;;;1.58;;
35494;SDS011;75532;49.300;6.846;2024-02-26T06:16:16;7.30;;;1.80;;
35494;SDS011;75532;49.300;6.846;2024-02-26T06:19:17;5.10;;;1.20;;
35494;SDS011;75532;49.300;6.846;2024-02-26T06:22:17;5.15;;;1.30;;
35494;SDS011;75532;49.300;6.846;2024-02-26T06:25:18;4.65;;;1.40;;
35494;SDS011;75532;49.300;6.846;2024-02-26T06:28:18;4.68;;;1.38;;
35494;SDS011;75532;49.300;6.846;2024-02-26T06:31:19;3.05;;;1.42;;
35494;SDS011;75532;49.300;6.846;2024-02-26T06:34:21;3.00;;;1.20;;
35494;SDS011;75532;49.300;6.846;2024-02-26T06:37:22;3.63;;;1.40;;
35494;SDS011;75532;49.300;6.846;2024-02-26T06:40:22;4.82;;;1.23;;
35494;SDS011;75532;49.300;6.846;2024-02-26T06:43:23;2.47;;;1.00;;
35494;SDS011;75532;49.300;6.846;2024-02-26T06:46:23;3.28;;;1.00;;
35494;SDS011;75532;49.300;6.846;2024-02-26T06:49:26;6.40;;;1.50;;
35494;SDS011;75532;49.300;6.846;2024-02-26T06:52:26;2.58;;;1.08;;
35494;SDS011;75532;49.300;6.846;2024-02-26T06:55:27;3.10;;;1.10;;
35494;SDS011;75532;49.300;6.846;2024-02-26T06:58:28;1.77;;;0.95;;
35494;SDS011;75532;49.300;6.846;2024-02-26T07:01:28;3.50;;;1.10;;
35494;SDS011;75532;49.300;6.846;2024-02-26T07:04:30;1.45;;;0.88;;
35494;SDS011;75532;49.300;6.846;2024-02-26T07:07:33;1.85;;;1.20;;
35494;SDS011;75532;49.300;6.846;2024-02-26T07:10:34;1.65;;;0.82;;
35494;SDS011;75532;49.300;6.846;2024-02-26T07:13:35;1.35;;;0.85;;
35494;SDS011;75532;49.300;6.846;2024-02-26T07:16:35;2.40;;;1.20;;
35494;SDS011;75532;49.300;6.846;2024-02-26T07:19:36;5.53;;;1.02;;
35494;SDS011;75532;49.300;6.846;2024-02-26T07:22:36;2.75;;;0.90;;
35494;SDS011;75532;49.300;6.846;2024-02-26T07:25:37;1.17;;;0.70;;
35494;SDS011;75532;49.300;6.846;2024-02-26T07:28:38;1.45;;;0.70;;
35494;SDS011;75532;49.300;6.846;2024-02-26T07:31:38;2.25;;;1.13;;
35494;SDS011;75532;49.300;6.846;2024-02-26T07:34:39;1.27;;;0.80;;
35494;SDS011;75532;49.300;6.846;2024-02-26T07:37:41;1.40;;;0.80;;
35494;SDS011;75532;49.300;6.846;2024-02-26T07:40:42;3.90;;;0.90;;
35494;SDS011;75532;49.300;6.846;2024-02-26T07:43:42;4.53;;;0.88;;
35494;SDS011;75532;49.300;6.846;2024-02-26T07:46:43;2.33;;;1.15;;
35494;SDS011;75532;49.300;6.846;2024-02-26T07:49:44;2.70;;;0.95;;
35494;SDS011;75532;49.300;6.846;2024-02-26T07:52:44;3.33;;;0.90;;
35494;SDS011;75532;49.300;6.846;2024-02-26T07:55:45;2.88;;;0.75;;
35494;SDS011;75532;49.300;6.846;2024-02-26T07:58:46;3.10;;;1.10;;
35494;SDS011;75532;49.300;6.846;2024-02-26T08:01:50;0.60;;;0.60;;
35494;SDS011;75532;49.300;6.846;2024-02-26T08:04:51;1.88;;;0.80;;
35494;SDS011;75532;49.300;6.846;2024-02-26T08:07:51;1.58;;;0.88;;
35494;SDS011;75532;49.300;6.846;2024-02-26T08:10:52;1.95;;;0.80;;
35494;SDS011;75532;49.300;6.846;2024-02-26T08:13:53;2.33;;;0.70;;
35494;SDS011;75532;49.300;6.846;2024-02-26T08:16:53;0.75;;;0.73;;
35494;SDS011;75532;49.300;6.846;2024-02-26T08:19:54;1.65;;;0.70;;
35494;SDS011;75532;49.300;6.846;2024-02-26T08:22:54;0.75;;;0.50;;
35494;SDS011;75532;49.300;6.846;2024-02-26T08:25:55;1.48;;;0.60;;
35494;SDS011;75532;49.300;6.846;2024-02-26T08:28:56;4.20;;;1.00;;
35494;SDS011;75532;49.300;6.846;2024-02-26T08:31:58;2.55;;;0.82;;
35494;SDS011;75532;49.300;6.846;2024-02-26T08:34:59;2.35;;;0.80;;
35494;SDS011;75532;49.300;6.846;2024-02-26T08:38:00;1.00;;;0.70;;
35494;SDS011;75532;49.300;6.846;2024-02-26T08:41:04;0.50;;;0.40;;
35494;SDS011;75532;49.300;6.846;2024-02-26T08:44:04;1.10;;;0.57;;
35494;SDS011;75532;49.300;6.846;2024-02-26T08:47:05;0.73;;;0.60;;
35494;SDS011;75532;49.300;6.846;2024-02-26T08:50:06;1.38;;;0.90;;
35494;SDS011;75532;49.300;6.846;2024-02-26T08:53:09;0.98;;;0.70;;
35494;SDS011;75532;49.300;6.846;2024-02-26T08:56:10;0.57;;;0.50;;
35494;SDS011;75532;49.300;6.846;2024-02-26T08:59:16;1.17;;;0.70;;
35494;SDS011;75532;49.300;6.846;2024-02-26T09:02:22;2.03;;;0.60;;
35494;SDS011;75532;49.300;6.846;2024-02-26T09:05:23;0.88;;;0.50;;
35494;SDS011;75532;49.300;6.846;2024-02-26T09:08:23;1.85;;;0.55;;
35494;SDS011;75532;49.300;6.846;2024-02-26T09:11:24;1.33;;;0.60;;
35494;SDS011;75532;49.300;6.846;2024-02-26T09:14:24;1.20;;;0.70;;
35494;SDS011;75532;49.300;6.846;2024-02-26T09:17:25;2.53;;;0.63;;
35494;SDS011;75532;49.300;6.846;2024-02-26T09:20:25;1.23;;;0.73;;
35494;SDS011;75532;49.300;6.846;2024-02-26T09:23:26;0.70;;;0.65;;
35494;SDS011;75532;49.300;6.846;2024-02-26T09:26:26;2.97;;;0.82;;
35494;SDS011;75532;49.300;6.846;2024-02-26T09:29:27;1.77;;;0.60;;
35494;SDS011;75532;49.300;6.846;2024-02-26T09:32:27;4.50;;;0.85;;
35494;SDS011;75532;49.300;6.846;2024-02-26T09:35:28;0.47;;;0.47;;
35494;SDS011;75532;49.300;6.846;2024-02-26T09:38:29;0.80;;;0.60;;
35494;SDS011;75532;49.300;6.846;2024-02-26T09:41:30;1.20;;;0.60;;
35494;SDS011;75532;49.300;6.846;2024-02-26T09:44:31;1.45;;;0.70;;
35494;SDS011;75532;49.300;6.846;2024-02-26T09:47:36;0.60;;;0.50;;
35494;SDS011;75532;49.300;6.846;2024-02-26T09:50:38;4.15;;;1.70;;
35494;SDS011;75532;49.300;6.846;2024-02-26T09:53:42;9.13;;;1.90;;
35494;SDS011;75532;49.300;6.846;2024-02-26T09:56:45;13.00;;;3.28;;
35494;SDS011;75532;49.300;6.846;2024-02-26T09:59:48;5.20;;;3.08;;
35494;SDS011;75532;49.300;6.846;2024-02-26T10:02:51;5.22;;;2.35;;
35494;SDS011;75532;49.300;6.846;2024-02-26T10:05:51;4.68;;;2.67;;
35494;SDS011;75532;49.300;6.846;2024-02-26T10:08:56;7.60;;;2.50;;
35494;SDS011;75532;49.300;6.846;2024-02-26T10:11:58;5.88;;;1.85;;
35494;SDS011;75532;49.300;6.846;2024-02-26T10:14:59;3.88;;;1.75;;
35494;SDS011;75532;49.300;6.846;2024-02-26T10:18:03;6.38;;;2.17;;
35494;SDS011;75532;49.300;6.846;2024-02-26T10:21:05;2.60;;;1.48;;
35494;SDS011;75532;49.300;6.846;2024-02-26T10:24:12;5.57;;;1.52;;
35494;SDS011;75532;49.300;6.846;2024-02-26T10:27:14;2.63;;;1.27;;
35494;SDS011;75532;49.300;6.846;2024-02-26T10:33:20;3.53;;;1.58;;
35494;SDS011;75532;49.300;6.846;2024-02-26T10:36:22;2.40;;;1.40;;
35494;SDS011;75532;49.300;6.846;2024-02-26T10:39:22;6.63;;;2.08;;
35494;SDS011;75532;49.300;6.846;2024-02-26T10:42:23;3.50;;;1.70;;
35494;SDS011;75532;49.300;6.846;2024-02-26T10:45:25;2.35;;;1.52;;
35494;SDS011;75532;49.300;6.846;2024-02-26T10:48:26;2.22;;;1.30;;
35494;SDS011;75532;49.300;6.846;2024-02-26T10:51:27;3.22;;;1.30;;
35494;SDS011;75532;49.300;6.846;2024-02-26T10:54:29;3.03;;;1.20;;
35494;SDS011;75532;49.300;6.846;2024-02-26T10:57:37;1.90;;;1.27;;
35494;SDS011;75532;49.300;6.846;2024-02-26T11:00:40;2.50;;;1.42;;
35494;SDS011;75532;49.300;6.846;2024-02-26T11:03:41;2.22;;;1.40;;
35494;SDS011;75532;49.300;6.846;2024-02-26T11:06:43;2.08;;;1.10;;
35494;SDS011;75532;49.300;6.846;2024-02-26T11:09:45;3.53;;;1.30;;
35494;SDS011;75532;49.300;6.846;2024-02-26T11:12:52;3.22;;;1.17;;
35494;SDS011;75532;49.300;6.846;2024-02-26T11:15:54;2.17;;;1.30;;
35494;SDS011;75532;49.300;6.846;2024-02-26T11:18:57;2.22;;;1.30;;
35494;SDS011;75532;49.300;6.846;2024-02-26T11:21:58;3.80;;;1.70;;
35494;SDS011;75532;49.300;6.846;2024-02-26T11:25:01;2.70;;;1.50;;
35494;SDS011;75532;49.300;6.846;2024-02-26T11:28:04;3.17;;;1.30;;
35494;SDS011;75532;49.300;6.846;2024-02-26T11:31:15;3.45;;;1.50;;
35494;SDS011;75532;49.300;6.846;2024-02-26T11:34:18;3.40;;;1.05;;
35494;SDS011;75532;49.300;6.846;2024-02-26T11:37:19;3.10;;;1.35;;
35494;SDS011;75532;49.300;6.846;2024-02-26T11:40:20;4.35;;;1.50;;
35494;SDS011;75532;49.300;6.846;2024-02-26T11:47:09;1.58;;;0.88;;
35494;SDS011;75532;49.300;6.846;2024-02-26T11:50:34;2.30;;;1.55;;
35494;SDS011;75532;49.300;6.846;2024-02-26T11:53:38;3.25;;;1.20;;
35494;SDS011;75532;49.300;6.846;2024-02-26T11:56:48;2.10;;;0.90;;
35494;SDS011;75532;49.300;6.846;2024-02-26T11:59:50;2.05;;;1.13;;
35494;SDS011;75532;49.300;6.846;2024-02-26T12:02:52;3.13;;;1.40;;
35494;SDS011;75532;49.300;6.846;2024-02-26T12:05:58;1.67;;;1.20;;
35494;SDS011;75532;49.300;6.846;2024-02-26T12:08:59;2.42;;;1.17;;
35494;SDS011;75532;49.300;6.846;2024-02-26T12:12:04;3.40;;;1.30;;
35494;SDS011;75532;49.300;6.846;2024-02-26T12:15:06;2.67;;;1.23;;
35494;SDS011;75532;49.300;6.846;2024-02-26T12:18:15;2.05;;;1.10;;
35494;SDS011;75532;49.300;6.846;2024-02-26T12:21:17;1.50;;;0.95;;
35494;SDS011;75532;49.300;6.846;2024-02-26T12:24:19;2.90;;;0.80;;
35494;SDS011;75532;49.300;6.846;2024-02-26T12:27:20;1.60;;;0.90;;
35494;SDS011;75532;49.300;6.846;2024-02-26T12:30:21;1.65;;;0.90;;
35494;SDS011;75532;49.300;6.846;2024-02-26T12:33:23;1.98;;;0.98;;
35494;SDS011;75532;49.300;6.846;2024-02-26T12:36:26;1.38;;;1.10;;
35494;SDS011;75532;49.300;6.846;2024-02-26T12:39:27;1.08;;;0.90;;
35494;SDS011;75532;49.300;6.846;2024-02-26T12:42:28;1.80;;;1.15;;
35494;SDS011;75532;49.300;6.846;2024-02-26T12:45:30;1.75;;;1.10;;
35494;SDS011;75532;49.300;6.846;2024-02-26T12:48:31;1.42;;;0.95;;
35494;SDS011;75532;49.300;6.846;2024-02-26T12:51:32;1.40;;;0.85;;
35494;SDS011;75532;49.300;6.846;2024-02-26T12:54:33;1.08;;;0.80;;
35494;SDS011;75532;49.300;6.846;2024-02-26T12:57:37;0.82;;;0.73;;
35494;SDS011;75532;49.300;6.846;2024-02-26T13:00:39;1.83;;;1.02;;
35494;SDS011;75532;49.300;6.846;2024-02-26T13:03:40;1.30;;;0.80;;
35494;SDS011;75532;49.300;6.846;2024-02-26T13:06:42;1.23;;;0.82;;
35494;SDS011;75532;49.300;6.846;2024-02-26T13:09:43;0.70;;;0.63;;
35494;SDS011;75532;49.300;6.846;2024-02-26T13:12:45;2.35;;;1.02;;
35494;SDS011;75532;49.300;6.846;2024-02-26T13:15:46;2.03;;;0.90;;
35494;SDS011;75532;49.300;6.846;2024-02-26T13:18:47;0.85;;;0.70;;
35494;SDS011;75532;49.300;6.846;2024-02-26T13:21:48;2.40;;;1.10;;
35494;SDS011;75532;49.300;6.846;2024-02-26T13:24:55;1.10;;;1.00;;
35494;SDS011;75532;49.300;6.846;2024-02-26T13:28:09;1.10;;;0.70;;
35494;SDS011;75532;49.300;6.846;2024-02-26T13:31:17;0.82;;;0.75;;
35494;SDS011;75532;49.300;6.846;2024-02-26T13:34:27;2.42;;;1.05;;
35494;SDS011;75532;49.300;6.846;2024-02-26T13:37:29;1.45;;;0.73;;
35494;SDS011;75532;49.300;6.846;2024-02-26T13:40:29;1.90;;;0.88;;
35494;SDS011;75532;49.300;6.846;2024-02-26T13:43:30;1.35;;;0.93;;
35494;SDS011;75532;49.300;6.846;2024-02-26T13:46:30;1.77;;;1.00;;
35494;SDS011;75532;49.300;6.846;2024-02-26T13:49:32;1.98;;;0.75;;
35494;SDS011;75532;49.300;6.846;2024-02-26T13:52:33;1.75;;;1.08;;
35494;SDS011;75532;49.300;6.846;2024-02-26T13:55:34;0.80;;;0.70;;
35494;SDS011;75532;49.300;6.846;2024-02-26T13:58:35;1.25;;;0.68;;
35494;SDS011;75532;49.300;6.846;2024-02-26T14:01:35;1.23;;;0.70;;
35494;SDS011;75532;49.300;6.846;2024-02-26T14:04:36;2.17;;;0.90;;
35494;SDS011;75532;49.300;6.846;2024-02-26T14:07:37;1.20;;;0.80;;
35494;SDS011;75532;49.300;6.846;2024-02-26T14:10:39;1.15;;;1.00;;
35494;SDS011;75532;49.300;6.846;2024-02-26T14:13:39;1.15;;;0.73;;
35494;SDS011;75532;49.300;6.846;2024-02-26T14:16:40;1.77;;;0.80;;
35494;SDS011;75532;49.300;6.846;2024-02-26T14:19:41;0.68;;;0.60;;
35494;SDS011;75532;49.300;6.846;2024-02-26T14:22:44;1.15;;;0.70;;
35494;SDS011;75532;49.300;6.846;2024-02-26T14:25:44;2.38;;;0.77;;
35494;SDS011;75532;49.300;6.846;2024-02-26T14:28:45;1.50;;;0.70;;
35494;SDS011;75532;49.300;6.846;2024-02-26T14:31:46;2.55;;;0.60;;
35494;SDS011;75532;49.300;6.846;2024-02-26T14:34:47;0.82;;;0.70;;
35494;SDS011;75532;49.300;6.846;2024-02-26T14:37:47;1.25;;;0.75;;
35494;SDS011;75532;49.300;6.846;2024-02-26T14:40:49;1.00;;;0.80;;
35494;SDS011;75532;49.300;6.846;2024-02-26T14:43:50;0.73;;;0.73;;
35494;SDS011;75532;49.300;6.846;2024-02-26T14:46:51;0.70;;;0.68;;
35494;SDS011;75532;49.300;6.846;2024-02-26T14:49:51;1.02;;;0.77;;
35494;SDS011;75532;49.300;6.846;2024-02-26T14:52:52;2.60;;;0.80;;
35494;SDS011;75532;49.300;6.846;2024-02-26T14:55:53;1.27;;;0.60;;
35494;SDS011;75532;49.300;6.846;2024-02-26T14:58:53;1.00;;;0.70;;
35494;SDS011;75532;49.300;6.846;2024-02-26T15:01:54;0.70;;;0.57;;
35494;SDS011;75532;49.300;6.846;2024-02-26T15:04:54;2.35;;;1.00;;
35494;SDS011;75532;49.300;6.846;2024-02-26T15:07:55;1.13;;;0.50;;
35494;SDS011;75532;49.300;6.846;2024-02-26T15:10:55;1.85;;;0.68;;
35494;SDS011;75532;49.300;6.846;2024-02-26T15:13:56;4.80;;;0.70;;
35494;SDS011;75532;49.300;6.846;2024-02-26T15:16:56;1.17;;;0.88;;
35494;SDS011;75532;49.300;6.846;2024-02-26T15:19:57;7.10;;;0.75;;
35494;SDS011;75532;49.300;6.846;2024-02-26T15:22:59;2.78;;;0.85;;
35494;SDS011;75532;49.300;6.846;2024-02-26T15:25:59;2.10;;;0.90;;
35494;SDS011;75532;49.300;6.846;2024-02-26T15:29:00;1.92;;;0.70;;
35494;SDS011;75532;49.300;6.846;2024-02-26T15:32:00;2.85;;;0.60;;
35494;SDS011;75532;49.300;6.846;2024-02-26T15:35:01;0.98;;;0.70;;
35494;SDS011;75532;49.300;6.846;2024-02-26T15:38:02;1.30;;;0.70;;
35494;SDS011;75532;49.300;6.846;2024-02-26T15:41:10;5.78;;;1.00;;
35494;SDS011;75532;49.300;6.846;2024-02-26T15:44:12;0.63;;;0.57;;
35494;SDS011;75532;49.300;6.846;2024-02-26T15:47:12;0.55;;;0.40;;
35494;SDS011;75532;49.300;6.846;2024-02-26T15:50:13;1.40;;;0.68;;
35494;SDS011;75532;49.300;6.846;2024-02-26T15:53:14;2.70;;;1.20;;
35494;SDS011;75532;49.300;6.846;2024-02-26T15:56:14;1.45;;;0.90;;
35494;SDS011;75532;49.300;6.846;2024-02-26T15:59:16;2.33;;;0.70;;
35494;SDS011;75532;49.300;6.846;2024-02-26T16:02:17;1.40;;;0.93;;
35494;SDS011;75532;49.300;6.846;2024-02-26T16:05:18;3.15;;;0.80;;
35494;SDS011;75532;49.300;6.846;2024-02-26T16:08:19;0.90;;;0.70;;
35494;SDS011;75532;49.300;6.846;2024-02-26T16:11:21;1.73;;;0.68;;
35494;SDS011;75532;49.300;6.846;2024-02-26T16:17:44;1.58;;;0.77;;
35494;SDS011;75532;49.300;6.846;2024-02-26T16:20:47;2.25;;;0.82;;
35494;SDS011;75532;49.300;6.846;2024-02-26T16:23:48;1.10;;;0.65;;
35494;SDS011;75532;49.300;6.846;2024-02-26T16:26:51;2.08;;;0.90;;
35494;SDS011;75532;49.300;6.846;2024-02-26T16:29:52;4.30;;;1.10;;
35494;SDS011;75532;49.300;6.846;2024-02-26T16:32:53;2.35;;;0.80;;
35494;SDS011;75532;49.300;6.846;2024-02-26T16:35:53;5.47;;;0.60;;
35494;SDS011;75532;49.300;6.846;2024-02-26T16:38:54;5.03;;;0.80;;
35494;SDS011;75532;49.300;6.846;2024-02-26T16:41:54;1.85;;;0.60;;
35494;SDS011;75532;49.300;6.846;2024-02-26T16:44:55;1.20;;;0.52;;
35494;SDS011;75532;49.300;6.846;2024-02-26T16:47:56;1.00;;;0.60;;
35494;SDS011;75532;49.300;6.846;2024-02-26T16:50:57;1.27;;;0.70;;
35494;SDS011;75532;49.300;6.846;2024-02-26T16:53:57;0.73;;;0.57;;
35494;SDS011;75532;49.300;6.846;2024-02-26T16:56:58;2.78;;;0.65;;
35494;SDS011;75532;49.300;6.846;2024-02-26T16:59:59;0.90;;;0.47;;
35494;SDS011;75532;49.300;6.846;2024-02-26T17:02:59;1.35;;;0.68;;
35494;SDS011;75532;49.300;6.846;2024-02-26T17:06:00;1.05;;;0.60;;
35494;SDS011;75532;49.300;6.846;2024-02-26T17:09:01;1.77;;;0.73;;
35494;SDS011;75532;49.300;6.846;2024-02-26T17:12:04;0.93;;;0.73;;
35494;SDS011;75532;49.300;6.846;2024-02-26T17:15:05;1.00;;;0.60;;
35494;SDS011;75532;49.300;6.846;2024-02-26T17:18:06;0.82;;;0.77;;
35494;SDS011;75532;49.300;6.846;2024-02-26T17:21:16;1.70;;;0.80;;
35494;SDS011;75532;49.300;6.846;2024-02-26T17:24:17;1.67;;;0.63;;
35494;SDS011;75532;49.300;6.846;2024-02-26T17:27:18;1.60;;;0.60;;
35494;SDS011;75532;49.300;6.846;2024-02-26T17:30:18;1.90;;;0.85;;
35494;SDS011;75532;49.300;6.846;2024-02-26T17:33:19;2.20;;;0.60;;
35494;SDS011;75532;49.300;6.846;2024-02-26T17:36:19;2.30;;;0.80;;
35494;SDS011;75532;49.300;6.846;2024-02-26T17:39:20;1.88;;;0.75;;
35494;SDS011;75532;49.300;6.846;2024-02-26T17:42:21;1.00;;;0.80;;
35494;SDS011;75532;49.300;6.846;2024-02-26T17:45:22;1.25;;;0.60;;
35494;SDS011;75532;49.300;6.846;2024-02-26T17:48:23;1.70;;;0.82;;
35494;SDS011;75532;49.300;6.846;2024-02-26T17:51:24;2.47;;;0.70;;
35494;SDS011;75532;49.300;6.846;2024-02-26T17:54:24;1.35;;;0.70;;
35494;SDS011;75532;49.300;6.846;2024-02-26T17:57:26;0.88;;;0.70;;
35494;SDS011;75532;49.300;6.846;2024-02-26T18:00:27;1.92;;;0.85;;
35494;SDS011;75532;49.300;6.846;2024-02-26T18:03:28;2.58;;;0.82;;
35494;SDS011;75532;49.300;6.846;2024-02-26T18:06:29;2.88;;;0.52;;
35494;SDS011;75532;49.300;6.846;2024-02-26T18:09:29;6.82;;;0.90;;
35494;SDS011;75532;49.300;6.846;2024-02-26T18:12:30;3.20;;;0.60;;
35494;SDS011;75532;49.300;6.846;2024-02-26T18:15:30;5.28;;;0.80;;
35494;SDS011;75532;49.300;6.846;2024-02-26T18:18:31;2.00;;;0.80;;
35494;SDS011;75532;49.300;6.846;2024-02-26T18:21:32;0.50;;;0.50;;
35494;SDS011;75532;49.300;6.846;2024-02-26T18:24:32;1.77;;;0.65;;